createdAt,value
2017-12-20T00:00:40.772Z,103124.72
2017-12-20T00:01:45.239Z,103126.80
2017-12-20T00:02:49.907Z,103126.27
2017-12-20T00:03:54.584Z,103126.34
2017-12-20T00:04:58.920Z,103134.11
2017-12-20T00:06:03.962Z,103122.26
2017-12-20T00:07:08.137Z,103128.83
2017-12-20T00:08:14.388Z,103128.23
2017-12-20T00:09:22.320Z,103130.88
2017-12-20T00:10:28.358Z,103136.20
2017-12-20T00:11:33.118Z,103135.22
2017-12-20T00:12:37.322Z,103131.69
2017-12-20T00:13:43.214Z,103139.58
2017-12-20T00:14:47.403Z,103136.03
2017-12-20T00:15:51.808Z,103132.89
2017-12-20T00:16:56.317Z,103136.82
2017-12-20T00:18:00.584Z,103133.55
2017-12-20T00:19:05.327Z,103135.13
2017-12-20T00:20:09.802Z,103134.22
2017-12-20T00:21:14.319Z,103129.05
2017-12-20T00:22:18.535Z,103135.62
2017-12-20T00:23:22.837Z,103129.81
2017-12-20T00:24:27.532Z,103128.77
2017-12-20T00:25:32.618Z,103126.62
2017-12-20T00:26:36.934Z,103129.64
2017-12-20T00:27:43.275Z,103126.88
2017-12-20T00:28:47.510Z,103124.98
2017-12-20T00:29:51.771Z,103127.62
2017-12-20T00:30:55.951Z,103127.17
2017-12-20T00:32:00.286Z,103128.52
2017-12-20T00:33:04.739Z,103131.01
2017-12-20T00:34:09.277Z,103130.98
2017-12-20T00:35:13.574Z,103127.87
2017-12-20T00:36:17.715Z,103127.84
2017-12-20T00:37:21.877Z,103126.95
2017-12-20T00:38:27.447Z,103121.19
2017-12-20T00:39:31.667Z,103123.00
2017-12-20T00:40:36.147Z,103126.09
2017-12-20T00:41:40.375Z,103117.77
2017-12-20T00:42:45.035Z,103119.92
2017-12-20T00:43:49.238Z,103120.80
2017-12-20T00:44:53.435Z,103121.59
2017-12-20T00:45:58.276Z,103123.59
2017-12-20T00:47:03.115Z,103122.48
2017-12-20T00:48:07.273Z,103115.73
2017-12-20T00:49:11.666Z,103120.07
2017-12-20T00:50:15.823Z,103114.09
2017-12-20T00:51:20.153Z,103110.30
2017-12-20T00:52:24.720Z,103119.61
2017-12-20T00:53:28.918Z,103116.42
2017-12-20T00:54:33.214Z,103111.08
2017-12-20T00:55:37.437Z,103113.34
2017-12-20T00:56:42.009Z,103116.52
2017-12-20T00:57:46.364Z,103109.50
2017-12-20T00:58:51.220Z,103111.55
2017-12-20T00:59:55.448Z,103113.67
2017-12-20T01:00:59.938Z,103110.52
2017-12-20T01:02:04.100Z,103116.71
2017-12-20T01:03:08.287Z,103115.31
2017-12-20T01:04:12.571Z,103114.34
2017-12-20T01:05:16.721Z,103114.27
2017-12-20T01:06:21.040Z,103115.05
2017-12-20T01:07:25.332Z,103116.27
2017-12-20T01:08:30.783Z,103117.30
2017-12-20T01:09:34.999Z,103122.32
2017-12-20T01:10:39.183Z,103121.50
2017-12-20T01:11:43.665Z,103121.85
2017-12-20T01:12:47.813Z,103122.84
2017-12-20T01:13:52.507Z,103123.29
2017-12-20T01:14:56.689Z,103125.28
2017-12-20T01:16:01.598Z,103125.09
2017-12-20T01:17:06.107Z,103129.97
2017-12-20T01:18:10.661Z,103125.22
2017-12-20T01:19:14.950Z,103123.94
2017-12-20T01:20:19.343Z,103118.59
2017-12-20T01:21:23.637Z,103119.97
2017-12-20T01:22:27.916Z,103120.49
2017-12-20T01:23:33.063Z,103118.73
2017-12-20T01:24:38.030Z,103118.83
2017-12-20T01:25:42.503Z,103123.84
2017-12-20T01:26:46.703Z,103121.41
2017-12-20T01:27:50.870Z,103120.33
2017-12-20T01:28:55.318Z,103125.13
2017-12-20T01:29:59.631Z,103127.97
2017-12-20T01:31:04.338Z,103125.06
2017-12-20T01:32:11.526Z,103124.98
2017-12-20T01:33:16.399Z,103120.60
2017-12-20T01:34:20.728Z,103116.16
2017-12-20T01:35:24.928Z,103109.44
2017-12-20T01:36:29.472Z,103113.64
2017-12-20T01:37:34.343Z,103107.20
2017-12-20T01:38:38.542Z,103105.42
2017-12-20T01:39:42.863Z,103105.63
2017-12-20T01:40:47.043Z,103105.98
2017-12-20T01:41:51.290Z,103115.41
2017-12-20T01:42:55.438Z,103114.69
2017-12-20T01:43:59.936Z,103107.97
2017-12-20T01:45:06.134Z,103113.59
2017-12-20T01:46:10.627Z,103116.39
2017-12-20T01:47:14.812Z,103112.66
2017-12-20T01:48:19.023Z,103109.84
2017-12-20T01:49:23.297Z,103117.45
2017-12-20T01:50:29.309Z,103115.45
2017-12-20T01:51:33.451Z,103121.46
2017-12-20T01:52:37.632Z,103118.58
2017-12-20T01:53:41.831Z,103119.45
2017-12-20T01:54:46.117Z,103116.60
2017-12-20T01:55:50.611Z,103120.88
2017-12-20T01:56:55.282Z,103115.11
2017-12-20T01:58:00.119Z,103118.58
2017-12-20T01:59:04.315Z,103117.34
2017-12-20T02:00:08.956Z,103114.58
2017-12-20T02:01:13.366Z,103113.89
2017-12-20T02:02:17.967Z,103116.38
2017-12-20T02:03:22.138Z,103111.00
2017-12-20T02:04:27.607Z,103118.59
2017-12-20T02:05:32.196Z,103118.86
2017-12-20T02:06:36.391Z,103117.26
2017-12-20T02:07:40.868Z,103118.29
2017-12-20T02:08:45.723Z,103117.53
2017-12-20T02:09:50.217Z,103124.86
2017-12-20T02:10:54.687Z,103125.08
2017-12-20T02:11:59.297Z,103118.23
2017-12-20T02:13:03.799Z,103120.81
2017-12-20T02:14:07.976Z,103124.04
2017-12-20T02:15:17.031Z,103123.39
2017-12-20T02:16:21.266Z,103120.12
2017-12-20T02:17:30.186Z,103121.37
2017-12-20T02:18:34.399Z,103122.73
2017-12-20T02:19:38.924Z,103121.41
2017-12-20T02:20:44.082Z,103117.72
2017-12-20T02:21:48.263Z,103121.53
2017-12-20T02:22:52.793Z,103114.33
2017-12-20T02:23:57.291Z,103115.29
2017-12-20T02:25:01.875Z,103116.34
2017-12-20T02:26:06.315Z,103111.66
2017-12-20T02:27:11.162Z,103113.66
2017-12-20T02:28:15.426Z,103112.39
2017-12-20T02:29:19.614Z,103112.27
2017-12-20T02:30:24.011Z,103109.72
2017-12-20T02:31:28.243Z,103108.34
2017-12-20T02:32:36.858Z,103106.05
2017-12-20T02:33:41.422Z,103104.59
2017-12-20T02:34:45.646Z,103109.73
2017-12-20T02:35:49.852Z,103093.18
2017-12-20T02:36:54.000Z,103097.53
2017-12-20T02:37:58.175Z,103090.56
2017-12-20T02:39:07.084Z,103095.83
2017-12-20T02:40:11.535Z,103092.94
2017-12-20T02:41:16.022Z,103089.23
2017-12-20T02:42:20.290Z,103085.15
2017-12-20T02:43:24.528Z,103085.75
2017-12-20T02:44:28.818Z,103084.64
2017-12-20T02:45:35.613Z,103088.08
2017-12-20T02:46:39.824Z,103088.37
2017-12-20T02:47:43.966Z,103084.34
2017-12-20T02:48:48.430Z,103085.02
2017-12-20T02:49:52.667Z,103091.15
2017-12-20T02:50:56.890Z,103093.49
2017-12-20T02:52:01.077Z,103094.42
2017-12-20T02:53:05.269Z,103093.42
2017-12-20T02:54:16.435Z,103097.97
2017-12-20T02:55:20.940Z,103091.48
2017-12-20T02:56:32.374Z,103095.69
2017-12-20T02:57:38.154Z,103100.87
2017-12-20T02:58:42.615Z,103094.98
2017-12-20T02:59:47.196Z,103090.91
2017-12-20T03:00:51.584Z,103094.58
2017-12-20T03:01:55.711Z,103097.86
2017-12-20T03:03:00.428Z,103104.92
2017-12-20T03:04:04.622Z,103098.35
2017-12-20T03:05:09.000Z,103100.07
2017-12-20T03:06:13.158Z,103096.97
2017-12-20T03:07:25.732Z,103101.78
2017-12-20T03:08:30.837Z,103097.77
2017-12-20T03:09:39.302Z,103107.73
2017-12-20T03:10:44.460Z,103100.95
2017-12-20T03:11:48.664Z,103102.05
2017-12-20T03:12:52.923Z,103092.89
2017-12-20T03:13:57.114Z,103096.52
2017-12-20T03:15:03.041Z,103091.09
2017-12-20T03:16:07.725Z,103100.62
2017-12-20T03:17:11.899Z,103096.46
2017-12-20T03:18:17.333Z,103093.53
2017-12-20T03:19:21.655Z,103094.96
2017-12-20T03:20:26.420Z,103092.80
2017-12-20T03:21:32.010Z,103095.77
2017-12-20T03:22:36.210Z,103099.88
2017-12-20T03:23:40.576Z,103108.82
2017-12-20T03:24:45.183Z,103104.92
2017-12-20T03:25:49.432Z,103096.69
2017-12-20T03:26:53.583Z,103104.55
2017-12-20T03:27:58.063Z,103102.68
2017-12-20T03:29:02.240Z,103104.28
2017-12-20T03:30:07.526Z,103103.04
2017-12-20T03:31:11.883Z,103102.47
2017-12-20T03:32:16.475Z,103101.57
2017-12-20T03:33:20.899Z,103101.41
2017-12-20T03:34:25.348Z,103094.13
2017-12-20T03:35:29.580Z,103103.17
2017-12-20T03:36:33.690Z,103096.30
2017-12-20T03:37:37.850Z,103098.03
2017-12-20T03:38:43.516Z,103106.67
2017-12-20T03:39:47.732Z,103100.83
2017-12-20T03:40:52.225Z,103105.17
2017-12-20T03:41:56.484Z,103105.50
2017-12-20T03:43:00.862Z,103106.53
2017-12-20T03:44:05.150Z,103104.34
2017-12-20T03:45:09.623Z,103108.35
2017-12-20T03:46:21.179Z,103105.58
2017-12-20T03:47:25.469Z,103106.70
2017-12-20T03:48:34.004Z,103109.50
2017-12-20T03:49:38.312Z,103105.74
2017-12-20T03:50:42.455Z,103099.41
2017-12-20T03:51:46.699Z,103100.13
2017-12-20T03:52:51.352Z,103096.79
2017-12-20T03:53:55.750Z,103101.00
2017-12-20T03:55:00.161Z,103096.18
2017-12-20T03:56:08.586Z,103090.57
2017-12-20T03:57:13.383Z,103097.96
2017-12-20T03:58:17.891Z,103103.05
2017-12-20T03:59:22.064Z,103096.66
2017-12-20T04:00:26.591Z,103098.42
2017-12-20T04:01:32.024Z,103096.54
2017-12-20T04:02:36.920Z,103093.70
2017-12-20T04:03:42.827Z,103101.20
2017-12-20T04:04:47.708Z,103097.45
2017-12-20T04:05:52.248Z,103102.11
2017-12-20T04:06:56.404Z,103098.05
2017-12-20T04:08:00.648Z,103098.41
2017-12-20T04:09:05.375Z,103102.38
2017-12-20T04:10:09.763Z,103095.45
2017-12-20T04:11:14.905Z,103095.94
2017-12-20T04:12:19.550Z,103091.10
2017-12-20T04:13:24.185Z,103094.53
2017-12-20T04:14:28.349Z,103097.95
2017-12-20T04:15:34.743Z,103096.58
2017-12-20T04:16:39.626Z,103101.03
2017-12-20T04:17:44.853Z,103100.16
2017-12-20T04:18:49.264Z,103099.27
2017-12-20T04:19:53.466Z,103102.08
2017-12-20T04:20:57.689Z,103099.84
2017-12-20T04:22:01.888Z,103093.20
2017-12-20T04:23:06.423Z,103096.78
2017-12-20T04:24:10.936Z,103094.41
2017-12-20T04:25:15.109Z,103092.06
2017-12-20T04:26:19.259Z,103093.22
2017-12-20T04:27:23.489Z,103091.41
2017-12-20T04:28:27.723Z,103092.73
2017-12-20T04:29:32.212Z,103086.48
2017-12-20T04:30:37.370Z,103087.78
2017-12-20T04:31:42.412Z,103087.85
2017-12-20T04:32:46.580Z,103090.03
2017-12-20T04:33:50.795Z,103085.38
2017-12-20T04:34:55.412Z,103088.78
2017-12-20T04:36:00.666Z,103085.55
2017-12-20T04:37:05.892Z,103086.31
2017-12-20T04:38:10.086Z,103088.18
2017-12-20T04:39:14.267Z,103088.36
2017-12-20T04:40:18.453Z,103087.89
2017-12-20T04:41:30.507Z,103090.17
2017-12-20T04:42:34.719Z,103087.52
2017-12-20T04:43:39.776Z,103094.70
2017-12-20T04:44:43.941Z,103093.07
2017-12-20T04:45:48.559Z,103097.22
2017-12-20T04:46:52.767Z,103098.38
2017-12-20T04:47:57.274Z,103094.00
2017-12-20T04:49:01.718Z,103090.87
2017-12-20T04:50:05.881Z,103094.51
2017-12-20T04:51:10.015Z,103094.37
2017-12-20T04:52:14.163Z,103089.75
2017-12-20T04:53:18.411Z,103086.09
2017-12-20T04:54:22.910Z,103084.47
2017-12-20T04:55:27.369Z,103082.83
2017-12-20T04:56:32.074Z,103086.58
2017-12-20T04:57:39.368Z,103088.70
2017-12-20T04:58:43.682Z,103094.05
2017-12-20T04:59:47.828Z,103093.00
2017-12-20T05:00:52.603Z,103088.88
2017-12-20T05:01:56.786Z,103087.71
2017-12-20T05:03:00.920Z,103080.64
2017-12-20T05:04:05.175Z,103085.58
2017-12-20T05:05:09.392Z,103081.80
2017-12-20T05:06:13.620Z,103084.88
2017-12-20T05:07:17.849Z,103085.92
2017-12-20T05:08:21.991Z,103079.51
2017-12-20T05:09:26.224Z,103087.29
2017-12-20T05:10:31.517Z,103084.36
2017-12-20T05:11:35.716Z,103086.95
2017-12-20T05:12:40.190Z,103089.84
2017-12-20T05:13:44.447Z,103083.05
2017-12-20T05:14:48.623Z,103082.36
2017-12-20T05:15:54.748Z,103086.50
2017-12-20T05:16:59.514Z,103086.09
2017-12-20T05:18:04.592Z,103092.56
2017-12-20T05:19:09.062Z,103088.46
2017-12-20T05:20:13.254Z,103093.63
2017-12-20T05:21:17.603Z,103092.20
2017-12-20T05:22:21.760Z,103096.16
2017-12-20T05:23:25.969Z,103098.77
2017-12-20T05:24:30.201Z,103101.48
2017-12-20T05:25:34.772Z,103104.44
2017-12-20T05:26:38.962Z,103098.70
2017-12-20T05:27:43.165Z,103101.05
2017-12-20T05:28:47.359Z,103106.59
2017-12-20T05:29:51.575Z,103107.54
2017-12-20T05:30:56.132Z,103106.06
2017-12-20T05:32:00.589Z,103106.03
2017-12-20T05:33:04.829Z,103106.89
2017-12-20T05:34:09.009Z,103106.42
2017-12-20T05:35:13.195Z,103102.33
2017-12-20T05:36:17.450Z,103108.08
2017-12-20T05:37:21.651Z,103108.94
2017-12-20T05:38:25.818Z,103104.80
2017-12-20T05:39:30.060Z,103105.01
2017-12-20T05:40:34.769Z,103100.77
2017-12-20T05:41:39.046Z,103102.02
2017-12-20T05:42:43.347Z,103106.32
2017-12-20T05:43:47.531Z,103107.93
2017-12-20T05:44:51.687Z,103107.03
2017-12-20T05:45:55.999Z,103113.45
2017-12-20T05:47:00.927Z,103110.80
2017-12-20T05:48:13.621Z,103110.80
2017-12-20T05:49:17.831Z,103118.68
2017-12-20T05:50:22.138Z,103120.81
2017-12-20T05:51:27.539Z,103122.98
2017-12-20T05:52:31.902Z,103119.27
2017-12-20T05:53:36.063Z,103125.20
2017-12-20T05:54:40.648Z,103124.98
2017-12-20T05:55:44.885Z,103120.87
2017-12-20T05:56:49.478Z,103122.50
2017-12-20T05:57:53.751Z,103124.08
2017-12-20T05:58:57.948Z,103125.16
2017-12-20T06:00:04.248Z,103124.97
2017-12-20T06:01:08.896Z,103122.30
2017-12-20T06:02:13.050Z,103130.79
2017-12-20T06:03:17.332Z,103126.95
2017-12-20T06:04:21.532Z,103120.02
2017-12-20T06:05:25.770Z,103122.14
2017-12-20T06:06:30.502Z,103125.58
2017-12-20T06:07:35.983Z,103129.30
2017-12-20T06:08:40.268Z,103136.03
2017-12-20T06:09:45.053Z,103134.70
2017-12-20T06:10:49.252Z,103126.36
2017-12-20T06:11:53.444Z,103127.80
2017-12-20T06:12:58.035Z,103128.61
2017-12-20T06:14:02.356Z,103131.28
2017-12-20T06:15:06.709Z,103128.77
2017-12-20T06:16:10.952Z,103127.89
2017-12-20T06:17:15.469Z,103133.03
2017-12-20T06:18:19.761Z,103132.84
2017-12-20T06:19:24.335Z,103137.30
2017-12-20T06:20:29.245Z,103131.34
2017-12-20T06:21:33.538Z,103133.62
2017-12-20T06:22:37.717Z,103136.53
2017-12-20T06:23:41.959Z,103133.98
2017-12-20T06:24:46.134Z,103131.48
2017-12-20T06:25:50.666Z,103130.11
2017-12-20T06:26:54.904Z,103133.72
2017-12-20T06:27:59.083Z,103131.33
2017-12-20T06:29:03.303Z,103128.63
2017-12-20T06:30:07.866Z,103132.10
2017-12-20T06:31:12.298Z,103131.34
2017-12-20T06:32:17.097Z,103135.48
2017-12-20T06:33:21.303Z,103133.98
2017-12-20T06:34:25.579Z,103131.33
2017-12-20T06:35:29.900Z,103129.59
2017-12-20T06:36:34.259Z,103128.55
2017-12-20T06:37:39.374Z,103132.30
2017-12-20T06:38:43.633Z,103133.48
2017-12-20T06:39:48.028Z,103134.52
2017-12-20T06:40:52.588Z,103131.22
2017-12-20T06:41:57.034Z,103134.02
2017-12-20T06:43:01.422Z,103134.73
2017-12-20T06:44:05.698Z,103138.48
2017-12-20T06:45:15.817Z,103139.59
2017-12-20T06:46:20.011Z,103139.13
2017-12-20T06:47:24.295Z,103142.44
2017-12-20T06:48:29.432Z,103145.50
2017-12-20T06:49:34.879Z,103139.64
2017-12-20T06:50:39.137Z,103145.94
2017-12-20T06:51:44.145Z,103139.75
2017-12-20T06:52:48.379Z,103136.40
2017-12-20T06:53:53.286Z,103141.26
2017-12-20T06:54:57.557Z,103144.52
2017-12-20T06:56:01.878Z,103136.81
2017-12-20T06:57:07.874Z,103145.36
2017-12-20T06:58:12.529Z,103145.96
2017-12-20T06:59:16.973Z,103144.30
2017-12-20T07:00:21.244Z,103141.77
2017-12-20T07:01:25.747Z,103143.44
2017-12-20T07:02:29.982Z,103139.05
2017-12-20T07:03:34.553Z,103144.36
2017-12-20T07:04:38.750Z,103148.44
2017-12-20T07:05:43.635Z,103145.50
2017-12-20T07:06:47.854Z,103142.62
2017-12-20T07:07:52.219Z,103148.58
2017-12-20T07:08:56.537Z,103150.44
2017-12-20T07:10:01.095Z,103146.39
2017-12-20T07:11:05.408Z,103153.92
2017-12-20T07:12:09.599Z,103153.17
2017-12-20T07:13:13.787Z,103147.84
2017-12-20T07:14:18.036Z,103154.11
2017-12-20T07:15:22.364Z,103158.66
2017-12-20T07:16:27.091Z,103158.87
2017-12-20T07:17:36.518Z,103159.95
2017-12-20T07:18:40.780Z,103159.96
2017-12-20T07:19:45.040Z,103164.67
2017-12-20T07:20:49.871Z,103165.22
2017-12-20T07:21:54.152Z,103171.75
2017-12-20T07:23:09.552Z,103171.30
2017-12-20T07:24:14.110Z,103172.06
2017-12-20T07:25:21.149Z,103164.42
2017-12-20T07:26:25.411Z,103174.25
2017-12-20T07:27:29.614Z,103174.00
2017-12-20T07:28:33.871Z,103168.62
2017-12-20T07:29:39.130Z,103167.44
2017-12-20T07:30:44.192Z,103171.61
2017-12-20T07:31:48.478Z,103170.32
2017-12-20T07:32:52.669Z,103174.81
2017-12-20T07:33:56.857Z,103169.42
2017-12-20T07:35:01.424Z,103173.43
2017-12-20T07:36:05.729Z,103179.67
2017-12-20T07:37:09.998Z,103182.85
2017-12-20T07:38:14.282Z,103180.78
2017-12-20T07:39:18.691Z,103176.05
2017-12-20T07:40:22.956Z,103185.69
2017-12-20T07:41:27.668Z,103183.89
2017-12-20T07:42:31.977Z,103183.35
2017-12-20T07:43:36.157Z,103187.02
2017-12-20T07:44:40.986Z,103181.14
2017-12-20T07:45:45.262Z,103182.91
2017-12-20T07:46:49.481Z,103186.97
2017-12-20T07:47:54.039Z,103202.98
2017-12-20T07:48:58.161Z,103197.50
2017-12-20T07:50:02.392Z,103204.77
2017-12-20T07:51:06.536Z,103204.53
2017-12-20T07:52:10.811Z,103213.12
2017-12-20T07:53:14.947Z,103207.25
2017-12-20T07:54:20.573Z,103204.05
2017-12-20T07:55:24.912Z,103211.01
2017-12-20T07:56:34.123Z,103218.32
2017-12-20T07:57:38.399Z,103212.11
2017-12-20T07:58:43.583Z,103211.70
2017-12-20T07:59:47.855Z,103215.55
2017-12-20T08:00:52.699Z,103216.86
2017-12-20T08:01:57.112Z,103214.56
2017-12-20T08:03:01.830Z,103204.00
2017-12-20T08:04:05.994Z,103217.36
2017-12-20T08:05:10.217Z,103211.39
2017-12-20T08:06:14.436Z,103213.14
2017-12-20T08:07:18.965Z,103206.73
2017-12-20T08:08:24.787Z,103213.27
2017-12-20T08:09:28.970Z,103213.55
2017-12-20T08:10:33.234Z,103213.37
2017-12-20T08:11:38.339Z,103217.11
2017-12-20T08:12:42.999Z,103216.82
2017-12-20T08:13:48.260Z,103211.88
2017-12-20T08:14:52.490Z,103209.20
2017-12-20T08:15:56.969Z,103212.00
2017-12-20T08:17:01.854Z,103210.41
2017-12-20T08:18:06.104Z,103207.53
2017-12-20T08:19:10.364Z,103201.98
2017-12-20T08:20:15.788Z,103203.30
2017-12-20T08:21:19.953Z,103207.98
2017-12-20T08:22:24.232Z,103200.39
2017-12-20T08:23:28.812Z,103205.28
2017-12-20T08:24:33.363Z,103204.46
2017-12-20T08:25:37.702Z,103207.27
2017-12-20T08:26:43.122Z,103201.38
2017-12-20T08:27:47.300Z,103203.73
2017-12-20T08:28:51.701Z,103209.46
2017-12-20T08:29:56.019Z,103213.37
2017-12-20T08:31:05.929Z,103213.94
2017-12-20T08:32:11.776Z,103208.89
2017-12-20T08:33:21.647Z,103212.34
2017-12-20T08:34:25.902Z,103208.08
2017-12-20T08:35:31.071Z,103209.16
2017-12-20T08:36:35.264Z,103204.80
2017-12-20T08:37:39.464Z,103208.23
2017-12-20T08:38:43.667Z,103205.97
2017-12-20T08:39:47.932Z,103211.04
2017-12-20T08:40:53.294Z,103209.40
2017-12-20T08:41:57.460Z,103206.83
2017-12-20T08:43:01.788Z,103205.41
2017-12-20T08:44:05.951Z,103210.90
2017-12-20T08:45:12.129Z,103211.81
2017-12-20T08:46:16.944Z,103213.44
2017-12-20T08:47:21.939Z,103218.52
2017-12-20T08:48:26.326Z,103213.39
2017-12-20T08:49:31.739Z,103217.80
2017-12-20T08:50:36.499Z,103217.48
2017-12-20T08:51:41.355Z,103216.86
2017-12-20T08:52:45.953Z,103211.74
2017-12-20T08:53:50.535Z,103213.73
2017-12-20T08:54:55.029Z,103218.55
2017-12-20T08:55:59.490Z,103213.59
2017-12-20T08:57:03.991Z,103223.83
2017-12-20T08:58:08.603Z,103222.50
2017-12-20T08:59:13.658Z,103225.19
2017-12-20T09:00:26.646Z,103224.42
2017-12-20T09:01:30.830Z,103226.06
2017-12-20T09:02:35.142Z,103228.17
2017-12-20T09:03:39.340Z,103231.56
2017-12-20T09:04:43.659Z,103239.91
2017-12-20T09:05:47.966Z,103234.05
2017-12-20T09:06:52.222Z,103237.34
2017-12-20T09:07:56.662Z,103233.59
2017-12-20T09:09:00.884Z,103232.27
2017-12-20T09:10:05.511Z,103237.84
2017-12-20T09:11:09.779Z,103238.12
2017-12-20T09:12:14.080Z,103238.39
2017-12-20T09:13:18.346Z,103241.41
2017-12-20T09:14:25.458Z,103237.01
2017-12-20T09:15:31.994Z,103241.99
2017-12-20T09:16:36.218Z,103243.87
2017-12-20T09:17:40.699Z,103237.45
2017-12-20T09:18:44.900Z,103242.86
2017-12-20T09:19:49.149Z,103244.20
2017-12-20T09:20:53.387Z,103248.34
2017-12-20T09:21:57.735Z,103249.17
2017-12-20T09:23:03.947Z,103247.95
2017-12-20T09:24:13.911Z,103243.14
2017-12-20T09:25:18.311Z,103248.93
2017-12-20T09:26:23.764Z,103242.70
2017-12-20T09:27:30.023Z,103243.32
2017-12-20T09:28:39.247Z,103246.83
2017-12-20T09:29:43.535Z,103236.66
2017-12-20T09:30:48.467Z,103241.80
2017-12-20T09:31:52.684Z,103238.06
2017-12-20T09:32:57.202Z,103237.45
2017-12-20T09:34:02.136Z,103235.72
2017-12-20T09:35:07.317Z,103238.31
2017-12-20T09:36:11.890Z,103242.03
2017-12-20T09:37:17.426Z,103248.55
2017-12-20T09:38:22.829Z,103249.08
2017-12-20T09:39:27.511Z,103251.95
2017-12-20T09:40:31.712Z,103250.56
2017-12-20T09:41:36.940Z,103255.85
2017-12-20T09:42:41.466Z,103254.73
2017-12-20T09:43:45.746Z,103260.32
2017-12-20T09:44:49.961Z,103259.02
2017-12-20T09:45:54.444Z,103259.83
2017-12-20T09:46:58.617Z,103260.73
2017-12-20T09:48:02.979Z,103262.95
2017-12-20T09:49:07.519Z,103261.85
2017-12-20T09:50:12.893Z,103259.63
2017-12-20T09:51:17.130Z,103262.86
2017-12-20T09:52:21.323Z,103261.01
2017-12-20T09:53:25.633Z,103263.17
2017-12-20T09:54:30.046Z,103251.53
2017-12-20T09:55:34.208Z,103245.27
2017-12-20T09:56:39.174Z,103250.30
2017-12-20T09:57:43.700Z,103241.21
2017-12-20T09:58:47.978Z,103240.48
2017-12-20T09:59:52.380Z,103239.08
2017-12-20T10:00:56.809Z,103238.55
2017-12-20T10:02:02.430Z,103241.78
2017-12-20T10:03:06.845Z,103244.92
2017-12-20T10:04:11.298Z,103248.06
2017-12-20T10:05:15.529Z,103241.28
2017-12-20T10:06:23.337Z,103242.65
2017-12-20T10:07:31.241Z,103251.61
2017-12-20T10:08:40.762Z,103245.84
2017-12-20T10:09:45.147Z,103243.59
2017-12-20T10:10:49.439Z,103235.69
2017-12-20T10:11:53.743Z,103232.62
2017-12-20T10:12:59.395Z,103244.39
2017-12-20T10:14:06.396Z,103239.08
2017-12-20T10:15:12.684Z,103245.90
2017-12-20T10:16:17.080Z,103246.44
2017-12-20T10:17:21.591Z,103239.33
2017-12-20T10:18:25.933Z,103238.95
2017-12-20T10:19:30.508Z,103239.23
2017-12-20T10:20:35.105Z,103241.73
2017-12-20T10:21:39.366Z,103243.36
2017-12-20T10:22:51.803Z,103243.32
2017-12-20T10:23:56.380Z,103242.05
2017-12-20T10:25:04.891Z,103242.91
2017-12-20T10:26:09.475Z,103243.91
2017-12-20T10:27:13.705Z,103245.11
2017-12-20T10:28:18.009Z,103246.81
2017-12-20T10:29:22.241Z,103245.41
2017-12-20T10:30:26.754Z,103246.29
2017-12-20T10:31:31.792Z,103240.74
2017-12-20T10:32:36.396Z,103239.16
2017-12-20T10:33:44.734Z,103243.09
2017-12-20T10:34:48.905Z,103241.27
2017-12-20T10:35:53.131Z,103232.36
2017-12-20T10:36:57.354Z,103234.77
2017-12-20T10:38:03.301Z,103232.86
2017-12-20T10:39:07.581Z,103227.91
2017-12-20T10:40:11.991Z,103230.42
2017-12-20T10:41:16.298Z,103235.05
2017-12-20T10:42:20.603Z,103231.16
2017-12-20T10:43:25.008Z,103222.76
2017-12-20T10:44:29.617Z,103227.14
2017-12-20T10:45:35.470Z,103224.45
2017-12-20T10:46:40.062Z,103221.86
2017-12-20T10:47:44.766Z,103223.59
2017-12-20T10:48:49.474Z,103227.89
2017-12-20T10:49:54.984Z,103229.84
2017-12-20T10:50:59.248Z,103231.30
2017-12-20T10:52:10.858Z,103229.18
2017-12-20T10:53:15.552Z,103236.34
2017-12-20T10:54:24.621Z,103236.89
2017-12-20T10:55:29.415Z,103229.72
2017-12-20T10:56:34.658Z,103233.36
2017-12-20T10:57:39.433Z,103237.68
2017-12-20T10:58:43.810Z,103237.66
2017-12-20T10:59:47.958Z,103233.20
2017-12-20T11:00:52.170Z,103237.45
2017-12-20T11:01:56.406Z,103242.78
2017-12-20T11:03:01.152Z,103242.59
2017-12-20T11:04:05.595Z,103238.41
2017-12-20T11:05:09.782Z,103235.01
2017-12-20T11:06:14.085Z,103244.44
2017-12-20T11:07:18.387Z,103246.77
2017-12-20T11:08:24.787Z,103238.96
2017-12-20T11:09:29.046Z,103242.53
2017-12-20T11:10:34.553Z,103237.92
2017-12-20T11:11:38.718Z,103238.53
2017-12-20T11:12:42.951Z,103239.63
2017-12-20T11:13:47.191Z,103236.66
2017-12-20T11:14:51.404Z,103232.20
2017-12-20T11:15:59.132Z,103238.63
2017-12-20T11:17:03.756Z,103236.63
2017-12-20T11:18:07.937Z,103236.94
2017-12-20T11:19:12.166Z,103236.43
2017-12-20T11:20:16.398Z,103237.83
2017-12-20T11:21:20.686Z,103235.40
2017-12-20T11:22:30.154Z,103234.55
2017-12-20T11:23:34.393Z,103229.67
2017-12-20T11:24:44.528Z,103232.16
2017-12-20T11:25:48.793Z,103237.91
2017-12-20T11:26:53.091Z,103233.80
2017-12-20T11:27:57.367Z,103224.58
2017-12-20T11:29:01.920Z,103230.28
2017-12-20T11:30:07.742Z,103227.88
2017-12-20T11:31:12.934Z,103220.73
2017-12-20T11:32:17.450Z,103225.67
2017-12-20T11:33:21.803Z,103220.72
2017-12-20T11:34:26.115Z,103220.20
2017-12-20T11:35:30.817Z,103209.89
2017-12-20T11:36:35.089Z,103224.09
2017-12-20T11:37:39.527Z,103223.09
2017-12-20T11:38:44.733Z,103220.53
2017-12-20T11:39:48.953Z,103216.12
2017-12-20T11:40:55.431Z,103220.12
2017-12-20T11:41:59.822Z,103221.59
2017-12-20T11:43:05.825Z,103216.27
2017-12-20T11:44:13.217Z,103215.09
2017-12-20T11:45:19.080Z,103213.00
2017-12-20T11:46:24.286Z,103211.27
2017-12-20T11:47:28.754Z,103217.47
2017-12-20T11:49:49.311Z,103216.92
2017-12-20T11:50:53.588Z,103212.77
2017-12-20T11:51:57.988Z,103209.23
2017-12-20T11:53:03.235Z,103211.80
2017-12-20T11:54:10.399Z,103211.11
2017-12-20T11:55:14.999Z,103214.32
2017-12-20T11:56:19.250Z,103210.82
2017-12-20T11:57:23.971Z,103211.11
2017-12-20T11:58:28.877Z,103206.22
2017-12-20T11:59:33.395Z,103212.27
2017-12-20T12:00:37.789Z,103219.55
2017-12-20T12:01:41.956Z,103211.65
2017-12-20T12:02:46.108Z,103215.86
2017-12-20T12:03:50.319Z,103216.08
2017-12-20T12:04:54.556Z,103212.89
2017-12-20T12:05:59.216Z,103215.12
2017-12-20T12:07:07.438Z,103206.83
2017-12-20T12:08:11.652Z,103219.09
2017-12-20T12:09:22.616Z,103215.58
2017-12-20T12:10:27.084Z,103214.91
2017-12-20T12:11:31.310Z,103208.49
2017-12-20T12:12:35.981Z,103207.42
2017-12-20T12:13:40.247Z,103210.84
2017-12-20T12:14:45.387Z,103207.25
2017-12-20T12:15:49.906Z,103207.41
2017-12-20T12:16:54.130Z,103213.65
2017-12-20T12:17:58.637Z,103206.72
2017-12-20T12:19:09.991Z,103211.37
2017-12-20T12:20:17.625Z,103208.95
2017-12-20T12:21:22.071Z,103208.32